Terminal Aerodrome Forecast
Issued by NWS

Home | Current Version | Previous Version | Text Only | Print | Product List | Glossary On
Versions: 1 2 3 4 5 6 7 8 9 10 11 12 13 14 15 16
962
FTUS43 KEAX 010520
TAFMKC
TAF
KMKC 010520Z 0106/0206 26003KT P6SM SCT150
     FM010900 33006KT P6SM SCT150=

USA.gov is the U.S. government's official web portal to all federal, state and local government web resources and services.